createdAt,value
2023-01-09T00:01:51.126Z,9.10
2023-01-09T00:04:19.651Z,10.00
2023-01-09T00:06:53.942Z,10.10
2023-01-09T00:09:23.987Z,11.43
2023-01-09T00:11:52.518Z,10.50
2023-01-09T00:14:20.816Z,11.10
2023-01-09T00:16:48.812Z,10.20
2023-01-09T00:19:16.984Z,7.90
2023-01-09T00:21:45.109Z,8.60
2023-01-09T00:24:13.038Z,10.93
2023-01-09T00:26:42.370Z,10.97
2023-01-09T00:29:11.807Z,9.47
2023-01-09T00:31:40.050Z,12.07
2023-01-09T00:34:10.474Z,10.73
2023-01-09T00:36:38.513Z,11.20
2023-01-09T00:39:07.179Z,9.73
2023-01-09T00:41:38.036Z,11.30
2023-01-09T00:44:11.383Z,10.77
2023-01-09T00:46:44.166Z,10.40
2023-01-09T00:49:13.202Z,10.30
2023-01-09T00:51:42.487Z,11.63
2023-01-09T00:54:11.249Z,11.53
2023-01-09T00:56:39.339Z,11.90
2023-01-09T00:59:09.027Z,10.87
2023-01-09T01:01:37.324Z,12.70
2023-01-09T01:04:25.611Z,10.17
2023-01-09T01:07:11.194Z,11.00
2023-01-09T01:09:39.207Z,11.90
2023-01-09T01:12:07.495Z,12.50
2023-01-09T01:14:38.583Z,12.30
2023-01-09T01:17:07.211Z,11.43
2023-01-09T01:19:35.713Z,11.67
2023-01-09T01:22:04.234Z,11.87
2023-01-09T01:24:32.365Z,11.13
2023-01-09T01:27:00.603Z,14.27
2023-01-09T01:29:28.901Z,14.33
2023-01-09T01:31:58.471Z,13.17
2023-01-09T01:34:26.560Z,12.73
2023-01-09T01:36:54.571Z,13.87
2023-01-09T01:39:22.496Z,13.87
2023-01-09T01:41:50.596Z,8.33
2023-01-09T01:44:56.079Z,14.37
2023-01-09T01:47:31.923Z,14.43
2023-01-09T01:50:01.318Z,14.23
2023-01-09T01:52:31.434Z,13.83
2023-01-09T01:54:59.667Z,13.27
2023-01-09T01:57:27.715Z,12.60
2023-01-09T02:00:00.110Z,12.57
2023-01-09T02:02:31.703Z,11.70
2023-01-09T02:05:01.104Z,12.77
2023-01-09T02:07:29.998Z,13.37
2023-01-09T02:09:58.282Z,12.73
2023-01-09T02:12:28.345Z,12.97
2023-01-09T02:15:03.249Z,11.57
2023-01-09T02:17:55.085Z,13.67
2023-01-09T02:20:43.411Z,12.50
2023-01-09T02:23:49.276Z,10.67
2023-01-09T02:26:36.472Z,10.67
2023-01-09T02:29:46.014Z,13.67
2023-01-09T02:32:25.415Z,10.03
2023-01-09T02:35:04.198Z,13.00
2023-01-09T02:37:42.275Z,12.83
2023-01-09T02:40:20.459Z,10.33
2023-01-09T02:42:49.110Z,11.97
2023-01-09T02:45:17.146Z,11.30
2023-01-09T02:47:48.114Z,10.57
2023-01-09T02:50:21.430Z,10.63
2023-01-09T02:53:17.267Z,10.40
2023-01-09T02:55:56.395Z,11.40
2023-01-09T02:58:40.991Z,8.97
2023-01-09T03:01:18.786Z,13.00
2023-01-09T03:03:53.499Z,11.77
2023-01-09T03:06:29.809Z,11.43
2023-01-09T03:09:01.392Z,10.50
2023-01-09T03:11:34.625Z,10.60
2023-01-09T03:14:10.464Z,11.10
2023-01-09T03:16:39.622Z,8.07
2023-01-09T03:19:12.665Z,9.50
2023-01-09T03:21:41.897Z,11.27
2023-01-09T03:24:10.039Z,10.73
2023-01-09T03:26:38.264Z,12.23
2023-01-09T03:29:06.520Z,12.33
2023-01-09T03:31:34.507Z,11.23
2023-01-09T03:34:02.707Z,13.07
2023-01-09T03:36:32.567Z,8.90
2023-01-09T03:39:00.504Z,10.87
2023-01-09T03:41:28.440Z,10.23
2023-01-09T03:43:56.357Z,10.40
2023-01-09T03:46:24.300Z,9.37
2023-01-09T03:48:52.193Z,12.30
2023-01-09T03:51:20.132Z,11.90
2023-01-09T03:53:49.455Z,10.60
2023-01-09T03:56:17.435Z,11.90
2023-01-09T03:58:45.479Z,12.50
2023-01-09T04:01:13.647Z,12.03
2023-01-09T04:03:41.965Z,11.00
2023-01-09T04:06:10.079Z,12.20
2023-01-09T04:08:38.003Z,12.17
2023-01-09T04:11:07.616Z,11.80
2023-01-09T04:13:35.577Z,13.00
2023-01-09T04:16:03.574Z,14.90
2023-01-09T04:18:31.587Z,11.30
2023-01-09T04:20:59.625Z,12.20
2023-01-09T04:23:27.529Z,14.00
2023-01-09T04:25:55.563Z,12.70
2023-01-09T04:28:24.987Z,12.27
2023-01-09T04:30:53.034Z,11.03
2023-01-09T04:33:20.949Z,12.37
2023-01-09T04:35:48.930Z,12.33
2023-01-09T04:38:16.859Z,11.30
2023-01-09T04:40:44.865Z,11.60
2023-01-09T04:43:12.847Z,12.47
2023-01-09T04:45:43.419Z,10.93
2023-01-09T04:48:11.735Z,10.93
2023-01-09T04:50:39.691Z,11.50
2023-01-09T04:53:07.989Z,11.03
2023-01-09T04:55:36.019Z,10.67
2023-01-09T04:58:04.043Z,10.90
2023-01-09T05:00:32.182Z,10.70
2023-01-09T05:03:02.834Z,11.13
2023-01-09T05:05:31.127Z,10.57
2023-01-09T05:07:59.146Z,11.47
2023-01-09T05:10:27.059Z,10.33
2023-01-09T05:12:55.002Z,9.27
2023-01-09T05:15:23.201Z,11.73
2023-01-09T05:17:51.189Z,6.47
2023-01-09T05:20:20.510Z,9.40
2023-01-09T05:22:48.469Z,8.67
2023-01-09T05:25:16.467Z,9.47
2023-01-09T05:27:46.286Z,10.27
2023-01-09T05:30:17.881Z,7.77
2023-01-09T05:32:46.426Z,10.57
2023-01-09T05:35:14.526Z,9.60
2023-01-09T05:37:43.746Z,9.20
2023-01-09T05:40:12.802Z,10.10
2023-01-09T05:42:40.873Z,9.23
2023-01-09T05:45:10.155Z,10.27
2023-01-09T05:47:38.058Z,8.40
2023-01-09T05:50:06.880Z,8.80
2023-01-09T05:52:34.880Z,8.70
2023-01-09T05:55:04.570Z,8.43
2023-01-09T05:57:32.591Z,8.07
2023-01-09T06:00:00.697Z,8.20
2023-01-09T06:02:28.713Z,7.27
2023-01-09T06:04:56.761Z,6.07
2023-01-09T06:07:24.880Z,6.13
2023-01-09T06:09:52.864Z,4.20
2023-01-09T06:12:22.370Z,1.93
2023-01-09T06:14:50.399Z,1.77
2023-01-09T06:17:18.475Z,1.77
2023-01-09T06:19:46.355Z,1.00
2023-01-09T06:22:14.360Z,0.90
2023-01-09T06:24:42.378Z,0.90
2023-01-09T06:27:10.504Z,0.80
2023-01-09T06:29:39.917Z,0.87
2023-01-09T06:32:08.251Z,0.60
2023-01-09T06:34:36.413Z,0.70
2023-01-09T06:37:04.501Z,1.10
2023-01-09T06:39:32.457Z,0.83
2023-01-09T06:42:00.455Z,0.80
2023-01-09T06:44:28.503Z,0.63
2023-01-09T06:46:58.096Z,0.70
2023-01-09T06:49:26.314Z,0.60
2023-01-09T06:51:54.501Z,0.90
2023-01-09T06:54:23.173Z,0.50
2023-01-09T06:56:51.465Z,0.60
2023-01-09T06:59:19.801Z,0.70
2023-01-09T07:01:47.997Z,0.60
2023-01-09T07:04:18.409Z,1.27
2023-01-09T07:06:49.140Z,0.90
2023-01-09T07:09:17.325Z,1.00
2023-01-09T07:11:45.647Z,0.93
2023-01-09T07:14:13.782Z,0.80
2023-01-09T07:16:42.026Z,0.60
2023-01-09T07:19:10.027Z,0.80
2023-01-09T07:21:39.379Z,0.70
2023-01-09T07:24:07.787Z,1.57
2023-01-09T07:26:35.818Z,1.00
2023-01-09T07:29:03.851Z,1.23
2023-01-09T07:31:32.009Z,0.90
2023-01-09T07:34:00.450Z,0.90
2023-01-09T07:36:34.990Z,0.80
2023-01-09T07:39:04.967Z,0.70
2023-01-09T07:41:33.063Z,0.80
2023-01-09T07:44:01.554Z,1.03
2023-01-09T07:46:29.651Z,0.70
2023-01-09T07:48:57.828Z,0.87
2023-01-09T07:51:25.995Z,1.03
2023-01-09T07:53:54.020Z,0.77
2023-01-09T07:56:23.602Z,0.90
2023-01-09T07:58:51.484Z,0.80
2023-01-09T08:01:19.547Z,0.80
2023-01-09T08:03:47.739Z,0.80
2023-01-09T08:06:15.680Z,2.70
2023-01-09T08:08:44.060Z,0.70
2023-01-09T08:11:12.059Z,0.80
2023-01-09T08:13:43.336Z,0.90
2023-01-09T08:17:25.759Z,1.37
2023-01-09T08:23:46.483Z,1.00
2023-01-09T08:29:59.416Z,0.97
2023-01-09T08:32:28.007Z,1.10
2023-01-09T08:34:59.047Z,1.57
2023-01-09T08:40:21.991Z,1.00
2023-01-09T08:43:07.615Z,1.20
2023-01-09T08:45:55.046Z,0.90
2023-01-09T08:49:17.159Z,0.83
2023-01-09T08:51:45.201Z,1.47
2023-01-09T08:54:13.525Z,1.70
2023-01-09T08:56:41.688Z,1.10
2023-01-09T08:59:10.919Z,1.57
2023-01-09T09:01:41.979Z,1.33
2023-01-09T09:04:10.326Z,1.60
2023-01-09T09:06:59.812Z,1.60
2023-01-09T09:09:27.853Z,1.33
2023-01-09T09:11:55.942Z,0.93
2023-01-09T09:14:41.777Z,1.20
2023-01-09T09:17:11.218Z,1.47
2023-01-09T09:20:18.559Z,1.00
2023-01-09T09:22:51.063Z,1.17
2023-01-09T09:25:24.608Z,1.60
2023-01-09T09:27:52.887Z,0.93
2023-01-09T09:30:21.540Z,1.23
2023-01-09T09:32:58.529Z,1.20
2023-01-09T09:35:28.567Z,1.60
2023-01-09T09:41:48.197Z,1.03
2023-01-09T09:44:53.386Z,0.93
2023-01-09T09:47:34.996Z,1.13
2023-01-09T09:50:13.674Z,0.90
2023-01-09T09:52:54.325Z,0.90
2023-01-09T09:55:29.584Z,0.83
2023-01-09T09:57:59.704Z,1.40
2023-01-09T10:00:28.096Z,2.00
2023-01-09T10:02:59.776Z,1.13
2023-01-09T10:05:32.298Z,1.00
2023-01-09T10:08:32.899Z,1.30
2023-01-09T10:11:13.135Z,1.20
2023-01-09T10:14:22.995Z,0.90
2023-01-09T10:17:42.680Z,0.70
2023-01-09T10:20:43.519Z,1.00
2023-01-09T10:23:25.027Z,1.40
2023-01-09T10:26:07.349Z,0.90
2023-01-09T10:29:16.716Z,1.30
2023-01-09T10:32:21.258Z,1.03
2023-01-09T10:35:05.273Z,0.80
2023-01-09T10:38:06.948Z,1.00
2023-01-09T10:41:17.197Z,1.30
2023-01-09T10:43:54.803Z,1.30
2023-01-09T10:46:34.437Z,1.10
2023-01-09T10:49:48.035Z,1.60
2023-01-09T10:56:24.912Z,1.40
2023-01-09T10:58:54.681Z,1.00
2023-01-09T11:01:27.700Z,1.20
2023-01-09T11:03:59.392Z,1.17
2023-01-09T11:06:55.976Z,1.63
2023-01-09T11:09:24.259Z,1.00
2023-01-09T11:11:54.116Z,0.93
2023-01-09T11:14:31.272Z,1.30
2023-01-09T11:17:01.545Z,1.27
2023-01-09T11:20:01.593Z,1.20
2023-01-09T11:22:29.818Z,1.00
2023-01-09T11:25:02.639Z,1.57
2023-01-09T11:27:32.541Z,1.17
2023-01-09T11:30:27.767Z,1.03
2023-01-09T11:32:58.128Z,1.00
2023-01-09T11:35:33.963Z,0.90
2023-01-09T11:38:07.939Z,0.90
2023-01-09T11:40:47.726Z,1.23
2023-01-09T11:43:24.788Z,0.80
2023-01-09T11:46:01.100Z,1.53
2023-01-09T11:48:39.412Z,0.93
2023-01-09T11:51:27.512Z,1.00
2023-01-09T11:54:04.887Z,0.70
2023-01-09T11:56:33.306Z,0.90
2023-01-09T11:59:02.818Z,0.80
2023-01-09T12:02:07.115Z,1.13
2023-01-09T12:04:38.551Z,0.90
2023-01-09T12:07:45.193Z,0.80
2023-01-09T12:10:34.224Z,0.83
2023-01-09T12:13:10.808Z,0.80
2023-01-09T12:15:48.024Z,1.10
2023-01-09T12:18:26.019Z,0.90
2023-01-09T12:21:22.828Z,0.80
2023-01-09T12:24:03.492Z,1.37
2023-01-09T12:26:34.279Z,1.03
2023-01-09T12:29:19.306Z,0.93
2023-01-09T12:32:23.231Z,2.20
2023-01-09T12:35:01.153Z,1.00
2023-01-09T12:37:55.880Z,1.20
2023-01-09T12:40:34.740Z,1.17
2023-01-09T12:43:13.514Z,1.10
2023-01-09T12:45:51.509Z,1.10
2023-01-09T12:48:38.205Z,1.00
2023-01-09T12:51:19.965Z,1.30
2023-01-09T12:53:53.590Z,1.10
2023-01-09T12:56:26.303Z,1.03
2023-01-09T12:58:58.467Z,1.20
2023-01-09T13:01:31.105Z,0.70
2023-01-09T13:04:10.955Z,1.20
2023-01-09T13:06:45.723Z,0.80
2023-01-09T13:09:28.269Z,1.10
2023-01-09T13:12:04.118Z,1.30
2023-01-09T13:14:50.343Z,1.30
2023-01-09T13:17:24.367Z,1.03
2023-01-09T13:19:53.343Z,1.17
2023-01-09T13:22:26.615Z,0.87
2023-01-09T13:25:30.375Z,1.27
2023-01-09T13:28:01.787Z,4.13
2023-01-09T13:30:42.805Z,0.80
2023-01-09T13:33:18.260Z,1.13
2023-01-09T13:35:51.671Z,1.03
2023-01-09T13:38:50.055Z,1.70
2023-01-09T13:41:37.239Z,0.90
2023-01-09T13:44:07.599Z,1.50
2023-01-09T13:46:38.417Z,0.93
2023-01-09T13:49:08.930Z,1.13
2023-01-09T13:51:59.522Z,0.77
2023-01-09T13:58:27.718Z,1.40
2023-01-09T14:01:36.189Z,1.10
2023-01-09T14:04:38.123Z,1.20
2023-01-09T14:07:29.403Z,0.90
2023-01-09T14:10:02.343Z,1.00
2023-01-09T14:12:34.675Z,1.37
2023-01-09T14:15:04.741Z,1.30
2023-01-09T14:20:24.910Z,0.93
2023-01-09T14:23:18.211Z,1.50
2023-01-09T14:25:48.081Z,1.53
2023-01-09T14:28:22.138Z,1.40
2023-01-09T14:31:11.621Z,1.90
2023-01-09T14:33:39.994Z,2.07
2023-01-09T14:36:15.736Z,1.63
2023-01-09T14:38:53.883Z,1.80
2023-01-09T14:42:06.176Z,1.20
2023-01-09T14:44:51.198Z,1.53
2023-01-09T14:47:54.502Z,1.40
2023-01-09T14:53:39.695Z,1.57
2023-01-09T14:56:27.901Z,1.73
2023-01-09T14:59:37.892Z,1.57
2023-01-09T15:05:17.087Z,1.50
2023-01-09T15:08:06.294Z,1.50
2023-01-09T15:10:39.761Z,2.03
2023-01-09T15:13:28.136Z,2.40
2023-01-09T15:16:06.546Z,1.67
2023-01-09T15:21:58.019Z,1.10
2023-01-09T15:24:29.762Z,1.10
2023-01-09T15:26:59.223Z,0.80
2023-01-09T15:30:15.633Z,1.37
2023-01-09T15:32:45.899Z,1.00
2023-01-09T15:35:15.170Z,1.30
2023-01-09T15:37:45.094Z,1.17
2023-01-09T15:40:26.825Z,0.90
2023-01-09T15:42:58.214Z,1.30
2023-01-09T15:45:29.320Z,0.70
2023-01-09T15:48:16.961Z,1.00
2023-01-09T15:50:46.098Z,0.80
2023-01-09T15:53:17.978Z,1.20
2023-01-09T15:55:46.733Z,1.30
2023-01-09T15:58:29.160Z,0.93
2023-01-09T16:01:01.306Z,1.20
2023-01-09T16:03:35.006Z,1.40
2023-01-09T16:06:08.770Z,1.43
2023-01-09T16:08:41.095Z,1.77
2023-01-09T16:11:10.957Z,1.57
2023-01-09T16:13:46.195Z,1.50
2023-01-09T16:16:14.883Z,1.33
2023-01-09T16:18:52.703Z,1.70
2023-01-09T16:21:41.669Z,2.50
2023-01-09T16:24:27.272Z,1.77
2023-01-09T16:27:28.723Z,1.93
2023-01-09T16:29:59.431Z,2.00
2023-01-09T16:32:29.891Z,2.30
2023-01-09T16:35:00.668Z,1.93
2023-01-09T16:37:29.580Z,2.73
2023-01-09T16:41:59.310Z,3.23
2023-01-09T16:43:15.665Z,2.33
2023-01-09T16:45:44.783Z,2.30
2023-01-09T16:48:15.271Z,1.63
2023-01-09T16:50:44.808Z,2.10
2023-01-09T16:53:17.477Z,2.03
2023-01-09T16:55:47.783Z,2.80
2023-01-09T16:58:18.671Z,2.00
2023-01-09T17:00:48.195Z,1.80
2023-01-09T17:03:17.675Z,1.60
2023-01-09T17:05:45.980Z,1.37
2023-01-09T17:08:22.401Z,1.70
2023-01-09T17:11:32.062Z,1.67
2023-01-09T17:14:02.998Z,1.80
2023-01-09T17:16:31.660Z,1.97
2023-01-09T17:18:59.751Z,2.03
2023-01-09T17:21:29.099Z,2.00
2023-01-09T17:24:11.101Z,1.87
2023-01-09T17:26:58.801Z,2.03
2023-01-09T17:29:28.813Z,2.17
2023-01-09T17:31:58.744Z,2.20
2023-01-09T17:34:26.741Z,2.10
2023-01-09T17:36:55.731Z,1.70
2023-01-09T17:39:23.979Z,2.17
2023-01-09T17:41:51.951Z,2.30
2023-01-09T17:44:19.887Z,2.70
2023-01-09T17:46:49.408Z,2.30
2023-01-09T17:49:19.920Z,1.87
2023-01-09T17:51:48.028Z,1.97
2023-01-09T17:54:16.003Z,1.97
2023-01-09T17:56:47.310Z,1.97
2023-01-09T17:59:16.436Z,2.07
2023-01-09T18:01:45.341Z,1.70
2023-01-09T18:04:15.857Z,2.80
2023-01-09T18:06:53.746Z,2.30
2023-01-09T18:09:22.353Z,2.00
2023-01-09T18:11:50.374Z,2.30
2023-01-09T18:14:18.709Z,2.00
2023-01-09T18:16:46.935Z,2.60
2023-01-09T18:19:17.136Z,2.50
2023-01-09T18:21:46.852Z,2.20
2023-01-09T18:24:15.166Z,2.20
2023-01-09T18:26:45.001Z,2.17
2023-01-09T18:29:20.215Z,2.37
2023-01-09T18:31:49.015Z,1.90
2023-01-09T18:34:18.474Z,1.70
2023-01-09T18:36:48.689Z,2.00
2023-01-09T18:39:37.715Z,2.17
2023-01-09T18:42:37.066Z,2.10
2023-01-09T18:48:56.084Z,3.07
2023-01-09T18:51:27.940Z,2.43
2023-01-09T18:54:35.121Z,2.37
2023-01-09T19:04:48.807Z,1.87
2023-01-09T19:07:27.150Z,1.77
2023-01-09T19:10:06.827Z,1.77
2023-01-09T19:16:45.717Z,1.63
2023-01-09T19:19:53.024Z,1.70
2023-01-09T19:23:02.588Z,1.60
2023-01-09T19:29:18.251Z,1.50
2023-01-09T19:31:53.899Z,1.97
2023-01-09T19:34:56.112Z,1.73
2023-01-09T19:37:24.382Z,1.60
2023-01-09T19:40:03.458Z,1.90
2023-01-09T19:42:31.672Z,1.70
2023-01-09T19:45:06.372Z,1.97
2023-01-09T19:47:36.932Z,1.50
2023-01-09T19:50:08.731Z,1.60
2023-01-09T19:52:38.774Z,1.20
2023-01-09T19:55:14.423Z,2.10
2023-01-09T19:57:44.709Z,1.53
2023-01-09T20:00:17.320Z,1.60
2023-01-09T20:02:48.386Z,1.30
2023-01-09T20:05:20.165Z,1.60
2023-01-09T20:08:00.673Z,1.73
2023-01-09T20:10:40.248Z,1.93
2023-01-09T20:13:09.248Z,1.53
2023-01-09T20:15:43.273Z,2.10
2023-01-09T20:18:15.079Z,1.90
2023-01-09T20:20:50.780Z,1.77
2023-01-09T20:23:22.946Z,2.00
2023-01-09T20:25:53.688Z,2.37
2023-01-09T20:28:26.406Z,1.70
2023-01-09T20:30:55.156Z,1.90
2023-01-09T20:33:26.828Z,2.33
2023-01-09T20:35:55.528Z,2.30
2023-01-09T20:38:25.386Z,1.70
2023-01-09T20:40:55.513Z,1.63
2023-01-09T20:43:24.732Z,2.00
2023-01-09T20:45:53.658Z,1.83
2023-01-09T20:48:23.443Z,2.27
2023-01-09T20:50:51.862Z,1.77
2023-01-09T20:53:21.166Z,1.40
2023-01-09T20:55:52.871Z,1.30
2023-01-09T20:58:22.788Z,2.30
2023-01-09T21:00:55.558Z,1.80
2023-01-09T21:03:28.854Z,1.40
2023-01-09T21:06:00.574Z,1.80
2023-01-09T21:08:31.698Z,1.60
2023-01-09T21:11:00.795Z,1.90
2023-01-09T21:13:34.074Z,1.90
2023-01-09T21:16:03.611Z,1.40
2023-01-09T21:18:32.855Z,1.10
2023-01-09T21:21:04.775Z,1.37
2023-01-09T21:23:35.290Z,1.30
2023-01-09T21:26:09.264Z,1.00
2023-01-09T21:28:46.278Z,1.23
2023-01-09T21:31:16.414Z,1.43
2023-01-09T21:33:44.612Z,1.93
2023-01-09T21:36:13.174Z,1.60
2023-01-09T21:38:42.011Z,1.77
2023-01-09T21:41:27.937Z,1.30
2023-01-09T21:44:15.048Z,1.60
2023-01-09T21:46:57.568Z,1.03
2023-01-09T21:49:27.400Z,1.30
2023-01-09T21:51:56.148Z,1.40
2023-01-09T21:54:25.066Z,1.50
2023-01-09T21:56:53.729Z,1.13
2023-01-09T21:59:23.093Z,1.40
2023-01-09T22:01:51.652Z,1.20
2023-01-09T22:04:21.580Z,1.73
2023-01-09T22:06:49.889Z,1.20
2023-01-09T22:09:17.865Z,1.00
2023-01-09T22:11:47.276Z,0.83
2023-01-09T22:14:17.186Z,1.07
2023-01-09T22:16:47.220Z,1.00
2023-01-09T22:19:18.014Z,0.80
2023-01-09T22:21:46.245Z,0.90
2023-01-09T22:24:14.682Z,1.10
2023-01-09T22:26:42.660Z,0.80
2023-01-09T22:29:10.608Z,1.20
2023-01-09T22:31:39.992Z,1.13
2023-01-09T22:34:15.090Z,1.00
2023-01-09T22:36:43.088Z,1.13
2023-01-09T22:39:13.268Z,1.10
2023-01-09T22:41:41.696Z,0.83
2023-01-09T22:44:11.189Z,0.97
2023-01-09T22:46:39.923Z,1.33
2023-01-09T22:49:11.991Z,1.00
2023-01-09T22:51:40.090Z,1.10
2023-01-09T22:54:08.344Z,1.17
2023-01-09T22:56:36.284Z,1.00
2023-01-09T22:59:04.270Z,1.00
2023-01-09T23:01:32.298Z,1.30
2023-01-09T23:04:00.241Z,1.00
2023-01-09T23:06:30.863Z,1.00
2023-01-09T23:08:58.761Z,1.27
2023-01-09T23:11:47.499Z,0.97
2023-01-09T23:14:15.588Z,1.00
2023-01-09T23:16:43.632Z,1.00
2023-01-09T23:19:15.745Z,1.27
2023-01-09T23:21:46.331Z,1.10
2023-01-09T23:24:19.012Z,0.90
2023-01-09T23:26:47.658Z,1.10
2023-01-09T23:29:16.305Z,1.10
2023-01-09T23:31:44.293Z,1.07
2023-01-09T23:34:16.457Z,1.03
2023-01-09T23:36:47.548Z,1.00
2023-01-09T23:39:15.782Z,1.07
2023-01-09T23:42:01.593Z,1.10
2023-01-09T23:44:30.118Z,1.37
2023-01-09T23:46:58.032Z,1.30
2023-01-09T23:49:26.021Z,0.80
2023-01-09T23:51:56.491Z,0.90
2023-01-09T23:54:24.414Z,1.13
2023-01-09T23:56:53.357Z,1.20
2023-01-09T23:59:21.394Z,1.40
